Time;durP1;ratioP1;P1;durP2;ratioP2;P2;SDS_P1;SDS_P2;PMS_P1;PMS_P2;Temp;Humidity;BMP_temperature;BMP_pressure;BME280_temperature;BME280_humidity;BME280_pressure;Samples;Min_cycle;Max_cycle;Signal;HPM_P1;HPM_P2
2022/07/27 00:00:17;;;;;;;4.10;1.77;;;17.60;99.90;;;;;;5135964;27;20235;-48
2022/07/27 00:02:42;;;;;;;4.88;1.80;;;17.60;99.90;;;;;;5136403;27;20164;-49
2022/07/27 00:05:08;;;;;;;7.88;2.25;;;17.60;99.90;;;;;;5135802;27;20164;-47
2022/07/27 00:07:34;;;;;;;3.97;1.92;;;17.50;99.90;;;;;;5117382;27;20164;-48
2022/07/27 00:09:59;;;;;;;6.68;2.05;;;17.50;99.90;;;;;;5135760;27;20232;-52
2022/07/27 00:12:25;;;;;;;7.18;1.83;;;17.50;99.90;;;;;;5117447;27;20176;-49
2022/07/27 00:14:51;;;;;;;5.88;2.08;;;17.40;99.90;;;;;;5135747;27;20685;-46
2022/07/27 00:17:22;;;;;;;5.53;2.20;;;17.40;99.90;;;;;;5135831;27;20160;-47
2022/07/27 00:19:47;;;;;;;4.70;1.70;;;17.40;99.90;;;;;;5118205;27;20167;-46
2022/07/27 00:22:13;;;;;;;7.28;2.03;;;17.40;99.90;;;;;;5135832;27;20525;-48
2022/07/27 00:24:38;;;;;;;4.70;1.85;;;17.40;99.90;;;;;;5135639;27;20534;-47
2022/07/27 00:27:04;;;;;;;6.07;2.00;;;17.40;99.90;;;;;;5135716;27;20175;-46
2022/07/27 00:29:30;;;;;;;3.78;1.65;;;17.30;99.90;;;;;;5135478;27;20160;-46
2022/07/27 00:31:55;;;;;;;5.78;1.73;;;17.40;99.90;;;;;;5135540;27;20237;-47
2022/07/27 00:34:21;;;;;;;2.55;1.50;;;17.40;99.90;;;;;;5135355;27;20210;-47
2022/07/27 00:36:46;;;;;;;7.53;2.00;;;17.40;99.90;;;;;;5135395;27;20164;-48
2022/07/27 00:39:12;;;;;;;7.40;2.35;;;17.40;99.90;;;;;;5135654;27;20161;-46
2022/07/27 00:41:37;;;;;;;5.32;2.13;;;17.30;99.90;;;;;;5135283;27;20205;-46
2022/07/27 00:44:05;;;;;;;4.32;2.08;;;17.40;99.90;;;;;;5135177;27;20168;-47
2022/07/27 00:46:32;;;;;;;6.68;1.95;;;17.30;99.90;;;;;;5135086;27;20711;-46
2022/07/27 00:48:58;;;;;;;1.98;1.63;;;17.20;99.90;;;;;;5135406;27;20168;-46
2022/07/27 00:51:24;;;;;;;5.60;2.00;;;17.20;99.90;;;;;;5135271;27;20317;-46
2022/07/27 00:53:54;;;;;;;2.90;1.50;;;17.30;99.90;;;;;;5135280;27;20202;-46
2022/07/27 00:56:21;;;;;;;3.33;1.63;;;17.20;99.90;;;;;;5135230;27;20182;-46
2022/07/27 00:58:48;;;;;;;4.45;1.40;;;17.10;99.90;;;;;;5134972;27;20611;-47
2022/07/27 01:01:15;;;;;;;2.22;1.35;;;17.10;99.90;;;;;;5135100;27;20635;-48
2022/07/27 01:03:41;;;;;;;7.68;1.67;;;17.10;99.90;;;;;;5135631;27;20264;-46
2022/07/27 01:06:07;;;;;;;2.42;1.30;;;17.00;99.90;;;;;;5134750;27;20602;-47
2022/07/27 01:08:33;;;;;;;2.92;1.20;;;17.00;99.90;;;;;;5134652;27;20168;-55
2022/07/27 01:11:00;;;;;;;4.13;1.52;;;17.00;99.90;;;;;;5134546;27;20215;-55
2022/07/27 01:13:27;;;;;;;3.67;1.27;;;17.00;99.90;;;;;;5134624;27;20164;-55
2022/07/27 01:15:54;;;;;;;4.30;1.88;;;17.10;99.90;;;;;;5134480;27;20210;-55
2022/07/27 01:18:32;;;;;;;3.10;1.48;;;17.00;99.90;;;;;;5134572;27;20156;-55
2022/07/27 01:20:59;;;;;;;1.98;1.10;;;17.10;99.90;;;;;;5134431;27;20160;-55
2022/07/27 01:23:26;;;;;;;3.25;1.42;;;17.00;99.90;;;;;;5134408;27;20188;-55
2022/07/27 01:25:52;;;;;;;2.63;1.35;;;17.00;99.90;;;;;;5134371;27;20167;-54
2022/07/27 01:28:18;;;;;;;3.53;1.42;;;17.00;99.90;;;;;;5134439;27;20179;-55
2022/07/27 01:30:44;;;;;;;4.85;1.20;;;17.00;99.90;;;;;;5134147;27;20615;-53
2022/07/27 01:33:09;;;;;;;3.40;1.40;;;16.90;99.90;;;;;;5133958;27;20175;-55
2022/07/27 01:35:37;;;;;;;4.15;1.58;;;16.90;99.90;;;;;;5134153;27;20200;-55
2022/07/27 01:38:02;;;;;;;5.03;1.80;;;16.80;99.90;;;;;;5134206;27;20160;-55
2022/07/27 01:40:29;;;;;;;3.25;1.45;;;16.80;99.90;;;;;;5134034;27;20172;-55
2022/07/27 01:42:55;;;;;;;2.95;1.60;;;16.80;99.90;;;;;;5134003;27;20278;-55
2022/07/27 01:45:21;;;;;;;4.10;1.73;;;16.90;99.90;;;;;;5134031;27;20255;-56
2022/07/27 01:47:46;;;;;;;4.38;1.67;;;16.90;99.90;;;;;;5133956;27;20156;-55
2022/07/27 01:50:13;;;;;;;1.23;1.08;;;16.90;99.90;;;;;;5134293;27;20521;-55
2022/07/27 01:52:38;;;;;;;1.85;1.38;;;16.90;99.90;;;;;;5134130;27;20205;-55
2022/07/27 01:55:09;;;;;;;3.92;1.45;;;16.90;99.90;;;;;;5133845;27;20591;-54
2022/07/27 01:57:35;;;;;;;4.72;1.70;;;16.90;99.90;;;;;;5134027;27;20187;-56
2022/07/27 02:00:03;;;;;;;2.65;1.40;;;16.80;99.90;;;;;;5133764;27;20192;-54
2022/07/27 02:02:29;;;;;;;2.75;1.30;;;16.70;99.90;;;;;;5133946;27;20170;-55
2022/07/27 02:04:54;;;;;;;4.97;1.60;;;16.70;99.90;;;;;;5133639;27;20164;-56
2022/07/27 02:07:20;;;;;;;2.50;1.27;;;16.70;99.90;;;;;;5133693;27;20170;-55
2022/07/27 02:09:45;;;;;;;4.40;1.67;;;16.70;99.90;;;;;;5133564;27;20164;-55
2022/07/27 02:14:55;;;;;;;4.10;1.33;;;16.70;99.90;;;;;;5133449;27;20295;-54
2022/07/27 02:17:21;;;;;;;3.03;1.60;;;16.60;99.90;;;;;;5133607;27;20243;-49
2022/07/27 02:19:47;;;;;;;5.22;1.67;;;16.60;99.90;;;;;;5133637;27;20175;-55
2022/07/27 02:22:13;;;;;;;7.95;1.70;;;16.60;99.90;;;;;;5133917;27;20526;-47
2022/07/27 02:24:38;;;;;;;3.70;1.75;;;16.60;99.90;;;;;;5133685;27;20533;-55
2022/07/27 02:27:04;;;;;;;3.30;1.70;;;16.60;99.90;;;;;;5133290;27;20171;-54
2022/07/27 02:29:30;;;;;;;3.80;1.80;;;16.60;99.90;;;;;;5133532;27;20160;-55
2022/07/27 02:31:55;;;;;;;6.90;1.80;;;16.50;99.90;;;;;;5133264;27;20238;-55
2022/07/27 02:34:21;;;;;;;3.78;1.42;;;16.30;99.90;;;;;;5133080;27;20271;-52
2022/07/27 02:36:47;;;;;;;6.13;2.38;;;16.30;99.90;;;;;;5133213;27;20530;-51
2022/07/27 02:39:13;;;;;;;3.65;1.80;;;16.20;99.90;;;;;;5133136;27;20164;-49
2022/07/27 02:41:38;;;;;;;3.17;1.70;;;16.20;99.90;;;;;;5133281;27;20183;-54
2022/07/27 02:44:04;;;;;;;6.00;2.00;;;16.20;99.90;;;;;;5132301;27;20164;-54
2022/07/27 02:46:30;;;;;;;3.58;1.77;;;16.10;99.90;;;;;;5132862;27;20164;-54
2022/07/27 02:48:55;;;;;;;4.60;2.03;;;16.10;99.90;;;;;;5132914;27;20650;-54
2022/07/27 02:51:21;;;;;;;4.05;1.90;;;16.00;99.90;;;;;;5133011;27;20168;-55
2022/07/27 02:53:47;;;;;;;7.10;1.92;;;16.00;99.90;;;;;;5132859;27;20216;-53
2022/07/27 02:56:12;;;;;;;3.28;1.70;;;16.00;99.90;;;;;;5132941;27;20628;-46
2022/07/27 02:58:38;;;;;;;4.00;1.75;;;15.90;99.90;;;;;;5133231;27;20178;-52
2022/07/27 03:01:04;;;;;;;6.72;1.92;;;15.90;99.90;;;;;;5132856;27;20171;-47
2022/07/27 03:03:30;;;;;;;4.03;1.80;;;15.90;99.90;;;;;;5132832;28;20247;-46
2022/07/27 03:05:56;;;;;;;4.03;1.83;;;15.80;99.90;;;;;;5132529;28;20258;-45
2022/07/27 03:08:21;;;;;;;4.43;1.90;;;15.80;99.90;;;;;;5132654;27;20168;-46
2022/07/27 03:10:47;;;;;;;5.78;2.92;;;15.70;99.90;;;;;;5132655;27;20239;-46
2022/07/27 03:13:13;;;;;;;5.32;2.05;;;15.80;99.90;;;;;;5132798;27;20182;-47
2022/07/27 03:15:38;;;;;;;5.40;1.75;;;15.70;99.90;;;;;;5133206;27;20690;-46
2022/07/27 03:18:04;;;;;;;5.68;2.45;;;15.80;99.90;;;;;;5132720;27;20192;-46
2022/07/27 03:20:30;;;;;;;8.30;1.92;;;15.70;99.90;;;;;;5132624;27;20168;-47
2022/07/27 03:22:55;;;;;;;3.45;1.70;;;15.80;99.90;;;;;;5132617;27;20164;-45
2022/07/27 03:25:21;;;;;;;6.18;2.38;;;15.70;99.90;;;;;;5132603;27;20250;-45
2022/07/27 03:27:46;;;;;;;4.47;1.90;;;15.60;99.90;;;;;;5132648;27;20627;-46
2022/07/27 03:30:12;;;;;;;8.32;2.13;;;15.70;99.90;;;;;;5132889;27;20210;-45
2022/07/27 03:32:38;;;;;;;3.55;2.13;;;14.70;99.90;;;;;;5132909;27;20168;-46
2022/07/27 03:35:04;;;;;;;4.15;1.85;;;15.70;99.90;;;;;;5132495;28;20206;-46
2022/07/27 03:37:30;;;;;;;3.35;1.92;;;15.70;99.90;;;;;;5132411;27;20170;-47
2022/07/27 03:39:55;;;;;;;4.50;1.98;;;15.70;99.90;;;;;;5132512;27;20176;-46
2022/07/27 03:42:21;;;;;;;7.10;1.88;;;15.70;99.90;;;;;;5132704;27;20217;-46
2022/07/27 03:44:46;;;;;;;4.15;1.80;;;15.70;99.90;;;;;;5132499;27;20170;-45
2022/07/27 03:47:12;;;;;;;6.25;2.25;;;15.60;99.90;;;;;;5132789;27;20164;-47
2022/07/27 03:49:38;;;;;;;6.22;2.00;;;15.60;99.90;;;;;;5132942;27;20171;-45
2022/07/27 03:52:03;;;;;;;3.63;2.03;;;15.60;99.90;;;;;;5132596;27;20212;-45
2022/07/27 03:54:29;;;;;;;3.20;2.30;;;15.50;99.90;;;;;;5132228;27;20757;-46
2022/07/27 03:56:54;;;;;;;7.47;2.42;;;15.50;99.90;;;;;;5134878;27;20164;-46
2022/07/27 03:59:20;;;;;;;6.60;2.80;;;15.50;99.90;;;;;;5136126;27;20225;-45
2022/07/27 04:01:46;;;;;;;4.60;2.65;;;15.30;99.90;;;;;;5136121;27;20171;-45
2022/07/27 04:04:12;;;;;;;6.82;2.97;;;15.30;99.90;;;;;;5136218;27;20161;-46
2022/07/27 04:06:38;;;;;;;8.27;3.00;;;15.30;99.90;;;;;;5136225;27;20191;-45
2022/07/27 04:09:03;;;;;;;7.35;2.78;;;15.30;99.90;;;;;;5135898;27;20168;-51
2022/07/27 04:11:29;;;;;;;4.28;2.70;;;15.40;99.90;;;;;;5135769;27;20219;-46
2022/07/27 04:13:54;;;;;;;7.50;3.45;;;15.30;99.90;;;;;;5135752;27;20168;-51
2022/07/27 04:16:20;;;;;;;9.73;3.55;;;15.40;99.90;;;;;;5136007;27;20175;-48
2022/07/27 04:18:45;;;;;;;7.25;2.65;;;15.30;99.90;;;;;;5135718;27;20168;-47
2022/07/27 04:21:12;;;;;;;6.28;3.08;;;15.30;99.90;;;;;;5136286;27;20164;-47
2022/07/27 04:23:37;;;;;;;4.85;2.42;;;15.30;99.90;;;;;;5136010;27;20170;-47
2022/07/27 04:26:03;;;;;;;3.60;2.80;;;15.20;99.90;;;;;;5135518;27;20247;-47
2022/07/27 04:28:29;;;;;;;5.28;3.05;;;15.20;99.90;;;;;;5135819;27;20172;-46
2022/07/27 04:30:54;;;;;;;13.00;2.90;;;15.30;99.90;;;;;;5135536;27;20602;-45
2022/07/27 04:33:20;;;;;;;5.80;2.70;;;15.30;99.90;;;;;;5135451;27;20164;-46
2022/07/27 04:35:45;;;;;;;6.65;2.90;;;15.30;99.90;;;;;;5135305;27;20251;-48
2022/07/27 04:38:11;;;;;;;6.82;3.20;;;15.30;99.90;;;;;;5135727;27;20191;-49
2022/07/27 04:40:36;;;;;;;5.10;3.00;;;15.20;99.90;;;;;;5135311;27;20164;-47
2022/07/27 04:43:04;;;;;;;7.13;3.50;;;15.20;99.90;;;;;;5135262;27;20616;-47
2022/07/27 04:45:29;;;;;;;5.22;2.83;;;15.30;99.90;;;;;;5135517;27;20175;-47
2022/07/27 04:47:55;;;;;;;8.35;3.25;;;15.40;99.90;;;;;;5135231;27;20160;-46
2022/07/27 04:50:21;;;;;;;6.90;2.78;;;15.40;99.90;;;;;;5135029;27;20216;-47
2022/07/27 04:52:46;;;;;;;5.18;3.00;;;15.40;99.90;;;;;;5135209;27;20706;-45
2022/07/27 04:55:12;;;;;;;8.88;3.28;;;15.50;99.90;;;;;;5134933;27;20287;-46
2022/07/27 04:57:40;;;;;;;8.73;3.20;;;15.60;99.90;;;;;;5135308;27;20203;-47
2022/07/27 05:00:07;;;;;;;3.97;2.83;;;15.60;99.90;;;;;;5135119;27;20171;-55
2022/07/27 05:02:33;;;;;;;5.20;2.70;;;15.60;99.90;;;;;;5135109;27;20559;-55
2022/07/27 05:04:59;;;;;;;7.97;3.20;;;15.60;99.90;;;;;;5134819;27;20213;-54
2022/07/27 05:07:25;;;;;;;4.60;2.65;;;15.70;99.90;;;;;;5133721;27;20172;-54
2022/07/27 05:09:51;;;;;;;8.82;3.13;;;15.80;99.90;;;;;;5134624;27;20639;-55
2022/07/27 05:12:16;;;;;;;9.75;2.88;;;15.90;99.90;;;;;;5134744;27;20171;-55
2022/07/27 05:14:42;;;;;;;6.55;2.88;;;16.00;99.90;;;;;;5134645;27;20202;-50
2022/07/27 05:17:07;;;;;;;5.25;2.88;;;16.20;99.90;;;;;;5134877;27;20167;-56
2022/07/27 05:19:33;;;;;;;6.45;3.13;;;16.20;99.90;;;;;;5134285;27;20217;-55
2022/07/27 05:21:59;;;;;;;7.75;2.80;;;16.30;99.90;;;;;;5134154;27;20550;-50
2022/07/27 05:24:26;;;;;;;5.40;2.83;;;16.40;99.90;;;;;;5134309;27;20164;-55
2022/07/27 05:26:51;;;;;;;7.45;2.65;;;16.40;99.90;;;;;;5134551;27;20164;-54
2022/07/27 05:29:17;;;;;;;9.30;3.08;;;16.60;99.90;;;;;;5134501;27;20174;-54
2022/07/27 05:31:43;;;;;;;9.48;2.83;;;16.60;99.90;;;;;;5134127;27;20186;-55
2022/07/27 05:34:09;;;;;;;6.13;2.80;;;16.70;99.90;;;;;;5133257;27;20223;-55
2022/07/27 05:36:34;;;;;;;8.55;3.33;;;16.70;99.90;;;;;;5133930;27;20187;-54
2022/07/27 05:39:00;;;;;;;6.07;2.20;;;16.80;99.90;;;;;;5133800;27;20520;-54
2022/07/27 05:41:26;;;;;;;5.72;2.50;;;16.80;99.90;;;;;;5133910;27;20195;-55
2022/07/27 05:43:55;;;;;;;7.40;2.53;;;16.80;99.90;;;;;;5133916;27;20175;-54
2022/07/27 05:46:21;;;;;;;3.88;2.35;;;16.80;99.90;;;;;;5133858;27;20171;-53
2022/07/27 05:48:47;;;;;;;10.48;2.85;;;16.90;99.90;;;;;;5133831;27;20168;-55
2022/07/27 05:51:12;;;;;;;8.82;2.75;;;16.90;99.90;;;;;;5133972;27;20522;-46
2022/07/27 05:53:38;;;;;;;8.20;2.50;;;17.00;99.90;;;;;;5134277;27;20174;-47
2022/07/27 05:56:04;;;;;;;10.50;3.00;;;16.80;99.90;;;;;;5133783;27;20200;-48
2022/07/27 05:58:29;;;;;;;11.35;3.60;;;17.00;99.90;;;;;;5133810;27;20615;-47
2022/07/27 06:00:55;;;;;;;6.70;2.65;;;17.00;99.90;;;;;;5133741;27;20532;-47
2022/07/27 06:03:22;;;;;;;7.15;3.00;;;17.00;99.90;;;;;;5133634;27;20242;-47
2022/07/27 06:05:48;;;;;;;7.68;3.25;;;17.00;99.90;;;;;;5133615;27;20623;-47
2022/07/27 06:08:13;;;;;;;10.52;3.10;;;17.00;99.90;;;;;;5133546;27;20159;-48
2022/07/27 06:10:40;;;;;;;5.00;3.00;;;17.10;99.90;;;;;;5133833;27;20216;-46
2022/07/27 06:13:07;;;;;;;6.00;3.63;;;17.10;99.90;;;;;;5133420;27;20239;-48
2022/07/27 06:15:34;;;;;;;6.38;3.03;;;17.10;99.90;;;;;;5133331;27;20288;-48
2022/07/27 06:18:01;;;;;;;9.13;3.20;;;17.20;99.90;;;;;;5133375;27;20225;-46
2022/07/27 06:20:27;;;;;;;10.85;3.13;;;17.20;99.90;;;;;;5133089;27;20586;-46
2022/07/27 06:22:54;;;;;;;10.32;3.38;;;17.40;99.90;;;;;;5133380;27;20160;-47
2022/07/27 06:25:21;;;;;;;10.27;3.10;;;17.50;99.90;;;;;;5133260;27;20564;-47
2022/07/27 06:27:46;;;;;;;4.47;2.83;;;17.50;99.90;;;;;;5133287;27;20224;-48
2022/07/27 06:30:15;;;;;;;7.90;2.70;;;17.60;99.90;;;;;;5133180;27;20247;-46
2022/07/27 06:32:41;;;;;;;6.22;2.90;;;17.70;99.90;;;;;;5133442;27;20258;-47
2022/07/27 06:35:07;;;;;;;7.13;2.85;;;17.80;99.90;;;;;;5133317;27;20290;-48
2022/07/27 06:37:34;;;;;;;7.07;3.28;;;17.70;99.90;;;;;;5133145;27;20241;-46
2022/07/27 06:40:00;;;;;;;9.40;3.03;;;17.70;99.90;;;;;;5133237;27;20168;-47
2022/07/27 06:42:26;;;;;;;7.13;2.90;;;17.80;99.90;;;;;;5133034;27;20521;-47
2022/07/27 06:44:52;;;;;;;5.88;2.60;;;17.70;99.90;;;;;;5133050;27;20168;-46
2022/07/27 06:47:18;;;;;;;7.20;3.17;;;18.00;99.90;;;;;;5131392;27;20171;-48
2022/07/27 06:49:44;;;;;;;7.53;2.67;;;18.00;99.90;;;;;;5113226;27;20168;-45
2022/07/27 06:52:09;;;;;;;7.78;3.55;;;18.10;99.90;;;;;;5131947;27;20202;-44
2022/07/27 06:54:35;;;;;;;8.63;3.13;;;18.20;99.90;;;;;;5131541;27;20283;-43
2022/07/27 06:57:01;;;;;;;11.98;3.35;;;18.30;99.90;;;;;;5139972;27;20250;-45
2022/07/27 06:59:26;;;;;;;7.15;2.70;;;18.30;99.90;;;;;;5095278;28;20219;-44
2022/07/27 07:01:52;;;;;;;7.88;3.10;;;18.50;99.90;;;;;;5110850;28;20178;-54
2022/07/27 07:04:17;;;;;;;12.05;3.10;;;18.50;99.90;;;;;;5110938;28;20234;-49
2022/07/27 07:06:43;;;;;;;7.13;2.92;;;18.30;99.90;;;;;;5110807;28;20275;-50
2022/07/27 07:09:09;;;;;;;5.78;2.88;;;18.50;99.90;;;;;;5111104;28;20173;-45
2022/07/27 07:11:36;;;;;;;7.25;2.20;;;18.60;99.90;;;;;;5110773;28;20405;-44
2022/07/27 07:14:01;;;;;;;9.15;2.95;;;18.70;99.90;;;;;;5110683;28;20164;-49
2022/07/27 07:16:27;;;;;;;5.97;2.78;;;18.60;99.90;;;;;;5109456;28;20173;-47
2022/07/27 07:18:53;;;;;;;7.00;2.67;;;18.80;99.90;;;;;;5110771;28;20180;-49
2022/07/27 07:21:18;;;;;;;5.97;3.40;;;18.80;99.90;;;;;;5110629;28;20200;-46
2022/07/27 07:23:44;;;;;;;6.65;2.55;;;18.90;99.90;;;;;;5110729;28;20164;-48
2022/07/27 07:26:10;;;;;;;9.02;3.17;;;18.90;99.90;;;;;;5111266;28;20213;-47
2022/07/27 07:28:35;;;;;;;5.80;3.08;;;19.10;99.90;;;;;;5110654;28;20165;-48
2022/07/27 07:31:01;;;;;;;7.90;3.10;;;19.30;99.90;;;;;;5111809;28;20165;-48
2022/07/27 07:33:27;;;;;;;6.93;2.70;;;19.30;99.90;;;;;;5114568;28;20262;-46
2022/07/27 07:35:53;;;;;;;4.93;2.67;;;19.60;99.90;;;;;;5114612;28;20685;-42
2022/07/27 07:38:18;;;;;;;6.32;2.95;;;19.60;99.90;;;;;;5114893;28;20293;-51
2022/07/27 07:40:44;;;;;;;5.25;2.90;;;19.70;99.90;;;;;;5114822;28;20525;-55
2022/07/27 07:43:11;;;;;;;7.30;2.97;;;19.90;99.90;;;;;;5114774;28;20160;-51
2022/07/27 07:45:37;;;;;;;9.32;3.05;;;20.20;99.90;;;;;;5114743;28;20172;-52
2022/07/27 07:48:04;;;;;;;7.68;3.30;;;20.30;99.90;;;;;;5114447;28;20251;-51
2022/07/27 07:50:30;;;;;;;9.70;3.20;;;19.80;99.90;;;;;;5114601;28;20173;-47
2022/07/27 07:52:56;;;;;;;6.80;2.83;;;19.80;99.90;;;;;;5114517;28;20222;-47
2022/07/27 07:55:24;;;;;;;5.85;2.50;;;19.70;99.90;;;;;;5114051;28;20208;-48
2022/07/27 07:57:49;;;;;;;8.00;2.42;;;19.70;99.90;;;;;;5114128;28;20156;-46
2022/07/27 08:00:16;;;;;;;6.65;2.85;;;19.90;99.90;;;;;;5114490;28;20179;-46
2022/07/27 08:03:02;;;;;;;6.07;2.47;;;20.00;99.90;;;;;;5114220;28;20172;-44
2022/07/27 08:05:30;;;;;;;8.48;3.10;;;20.20;99.90;;;;;;5113581;28;20188;-44
2022/07/27 08:07:56;;;;;;;6.85;3.35;;;19.90;99.90;;;;;;5113902;28;20217;-43
2022/07/27 08:10:21;;;;;;;8.85;2.10;;;20.00;99.90;;;;;;5113714;28;20220;-54
2022/07/27 08:12:50;;;;;;;7.10;2.80;;;20.60;99.90;;;;;;5113888;28;20160;-55
2022/07/27 08:15:17;;;;;;;4.45;3.28;;;20.70;99.90;;;;;;5113639;28;20200;-55
2022/07/27 08:17:43;;;;;;;6.22;3.17;;;20.80;99.90;;;;;;5113748;28;20165;-43
2022/07/27 08:20:10;;;;;;;7.45;3.00;;;21.00;99.90;;;;;;5114243;28;20172;-44
2022/07/27 08:22:35;;;;;;;8.98;2.88;;;20.60;99.90;;;;;;5113657;28;20165;-47
2022/07/27 08:25:02;;;;;;;12.02;3.72;;;20.50;99.90;;;;;;5112301;28;20588;-47
2022/07/27 08:27:28;;;;;;;5.22;2.85;;;20.50;99.90;;;;;;5095070;28;20165;-46
2022/07/27 08:29:54;;;;;;;7.65;3.15;;;20.70;99.90;;;;;;5113692;28;20168;-47
2022/07/27 08:32:20;;;;;;;5.47;3.00;;;20.50;99.90;;;;;;5113589;28;20164;-44
2022/07/27 08:34:45;;;;;;;11.70;3.50;;;20.20;99.90;;;;;;5113332;28;20681;-43
2022/07/27 08:37:11;;;;;;;6.72;2.60;;;20.10;99.90;;;;;;5120416;27;20183;-44
2022/07/27 08:39:37;;;;;;;5.50;2.28;;;20.60;99.90;;;;;;5134082;27;20172;-50
2022/07/27 08:42:06;;;;;;;4.13;1.77;;;20.90;99.90;;;;;;5133696;27;20247;-50
2022/07/27 08:44:33;;;;;;;4.72;2.47;;;21.20;99.90;;;;;;5133741;27;20518;-51
2022/07/27 08:47:01;;;;;;;5.57;2.85;;;21.50;99.90;;;;;;5133795;27;20172;-51
2022/07/27 08:49:28;;;;;;;8.75;2.67;;;21.90;99.90;;;;;;5133721;27;20669;-51
2022/07/27 08:51:54;;;;;;;7.78;2.45;;;21.90;99.90;;;;;;5133708;27;20167;-47
2022/07/27 08:54:20;;;;;;;4.18;2.60;;;21.70;99.90;;;;;;5133523;27;20611;-44
2022/07/27 08:56:47;;;;;;;6.28;3.25;;;22.00;99.90;;;;;;5133820;27;20180;-55
2022/07/27 08:59:12;;;;;;;8.80;2.60;;;22.20;99.90;;;;;;5133475;27;20611;-43
2022/07/27 09:01:38;;;;;;;3.78;1.88;;;21.90;99.90;;;;;;5133818;27;20258;-46
2022/07/27 09:04:06;;;;;;;6.63;1.98;;;21.50;99.90;;;;;;5133482;27;20199;-49
2022/07/27 09:06:49;;;;;;;4.70;1.73;;;21.60;99.90;;;;;;5114900;27;20570;-52
2022/07/27 09:09:17;;;;;;;8.02;2.80;;;21.80;99.90;;;;;;5133243;27;20156;-52
2022/07/27 09:11:43;;;;;;;4.50;2.60;;;22.30;99.90;;;;;;5133032;27;20257;-53
2022/07/27 09:14:11;;;;;;;8.05;3.30;;;22.30;99.90;;;;;;5133395;27;20168;-52
2022/07/27 09:16:37;;;;;;;9.75;3.50;;;22.50;99.90;;;;;;5133290;27;20278;-52
2022/07/27 09:19:08;;;;;;;4.75;2.50;;;22.30;99.90;;;;;;5133226;27;20164;-52
2022/07/27 09:21:36;;;;;;;4.22;2.17;;;22.70;99.90;;;;;;5115026;27;20168;-50
2022/07/27 09:24:10;;;;;;;3.42;2.25;;;23.00;99.90;;;;;;5114672;27;20160;-52
2022/07/27 09:26:37;;;;;;;3.75;2.00;;;22.70;99.90;;;;;;5133346;27;20168;-51
2022/07/27 09:29:14;;;;;;;8.10;2.17;;;23.00;99.90;;;;;;5133076;27;20164;-52
2022/07/27 09:31:50;;;;;;;5.45;2.03;;;22.70;99.90;;;;;;5133189;27;20630;-47
2022/07/27 09:34:32;;;;;;;3.88;1.95;;;22.50;99.90;;;;;;5132961;27;20227;-47
2022/07/27 09:36:59;;;;;;;6.13;2.40;;;22.50;99.90;;;;;;5132691;27;20186;-45
2022/07/27 09:39:27;;;;;;;5.05;2.25;;;22.40;99.90;;;;;;5132809;27;20164;-46
2022/07/27 09:41:55;;;;;;;5.60;2.15;;;22.60;99.90;;;;;;5132700;27;20232;-46
2022/07/27 09:44:37;;;;;;;4.50;2.63;;;22.60;99.90;;;;;;5132645;27;20172;-45
2022/07/27 09:47:34;;;;;;;6.32;2.70;;;23.00;99.90;;;;;;5132959;27;20264;-47
2022/07/27 09:50:22;;;;;;;4.18;2.95;;;22.90;99.90;;;;;;5076245;27;20184;-46
2022/07/27 09:52:48;;;;;;;7.55;3.50;;;23.10;99.90;;;;;;5114019;27;20702;-45
2022/07/27 09:55:18;;;;;;;7.90;3.90;;;23.20;99.90;;;;;;5131799;27;20208;-52
2022/07/27 09:57:57;;;;;;;5.97;4.22;;;22.80;99.90;;;;;;5132448;27;20164;-45
2022/07/27 10:00:24;;;;;;;5.95;4.10;;;23.20;99.90;;;;;;5132114;27;20190;-47
2022/07/27 10:02:51;;;;;;;8.00;4.22;;;23.60;99.90;;;;;;5132269;27;20186;-48
2022/07/27 10:05:20;;;;;;;10.00;3.90;;;23.30;99.90;;;;;;5113850;27;20275;-46
2022/07/27 10:07:46;;;;;;;5.35;3.35;;;23.10;99.90;;;;;;5132151;27;20183;-46
2022/07/27 10:10:13;;;;;;;7.13;3.15;;;23.30;99.90;;;;;;5132041;27;20560;-47
2022/07/27 10:12:41;;;;;;;13.38;4.25;;;23.10;99.90;;;;;;5132562;27;20172;-47
2022/07/27 10:15:08;;;;;;;10.18;2.55;;;22.90;99.90;;;;;;5132226;27;20730;-46
2022/07/27 10:17:35;;;;;;;6.00;2.70;;;22.90;99.90;;;;;;5131955;27;20160;-46
2022/07/27 10:20:07;;;;;;;3.97;2.80;;;22.70;99.90;;;;;;5132406;27;20203;-49
2022/07/27 10:22:52;;;;;;;6.65;2.50;;;22.50;99.90;;;;;;5131921;27;20521;-46
2022/07/27 10:25:18;;;;;;;3.58;2.47;;;22.30;99.90;;;;;;5131412;27;20631;-47
2022/07/27 10:28:07;;;;;;;4.50;2.90;;;22.40;99.90;;;;;;5131705;27;20619;-46
2022/07/27 10:30:32;;;;;;;4.38;2.58;;;22.80;99.90;;;;;;5113369;27;20202;-52
2022/07/27 10:32:58;;;;;;;5.65;2.85;;;23.20;99.90;;;;;;5131760;27;20226;-53
2022/07/27 10:35:31;;;;;;;5.20;2.75;;;23.20;99.90;;;;;;5131725;27;20203;-53
2022/07/27 10:38:43;;;;;;;5.97;2.58;;;23.70;99.90;;;;;;5131724;27;20282;-53
2022/07/27 10:41:23;;;;;;;7.68;2.85;;;23.80;99.90;;;;;;5122102;27;20187;-52
2022/07/27 10:43:50;;;;;;;3.78;2.10;;;23.90;99.90;;;;;;5131634;27;20168;-52
2022/07/27 10:46:19;;;;;;;4.53;2.25;;;23.70;99.90;;;;;;5130454;27;20175;-52
2022/07/27 10:48:45;;;;;;;7.28;2.58;;;23.70;99.90;;;;;;5131777;27;20171;-52
2022/07/27 10:51:12;;;;;;;5.72;2.65;;;23.70;99.90;;;;;;5129646;27;20198;-50
2022/07/27 10:53:41;;;;;;;3.45;1.90;;;23.70;99.90;;;;;;5131860;27;20171;-53
2022/07/27 10:56:09;;;;;;;4.25;1.80;;;23.20;99.90;;;;;;5131590;27;20256;-50
2022/07/27 10:58:34;;;;;;;5.25;2.10;;;23.20;99.90;;;;;;5130554;27;20175;-45
2022/07/27 11:01:02;;;;;;;7.22;1.73;;;23.00;99.90;;;;;;5112978;28;20175;-42
2022/07/27 11:03:32;;;;;;;4.40;1.77;;;23.30;99.90;;;;;;5131581;27;20262;-44
2022/07/27 11:06:11;;;;;;;2.83;1.55;;;23.50;99.90;;;;;;5132507;27;20724;-50
2022/07/27 11:08:38;;;;;;;1.98;1.50;;;24.10;99.90;;;;;;5135916;27;20657;-53
2022/07/27 11:11:05;;;;;;;3.55;1.50;;;24.20;99.90;;;;;;5135644;27;20203;-49
2022/07/27 11:13:31;;;;;;;3.40;1.33;;;23.90;99.90;;;;;;5135614;27;20571;-44
2022/07/27 11:16:02;;;;;;;9.38;1.95;;;23.60;99.90;;;;;;5135383;27;20656;-43
2022/07/27 11:18:33;;;;;;;6.97;1.75;;;23.60;99.90;;;;;;5135790;27;20239;-42
2022/07/27 11:21:35;;;;;;;4.65;1.70;;;23.40;99.90;;;;;;5135746;27;20178;-47
2022/07/27 11:24:09;;;;;;;4.30;1.88;;;23.50;99.90;;;;;;5081638;27;20179;-46
2022/07/27 11:26:41;;;;;;;4.13;1.70;;;23.20;99.90;;;;;;5135683;27;20645;-45
2022/07/27 11:29:09;;;;;;;3.75;1.58;;;23.20;99.90;;;;;;5135614;27;20172;-45
2022/07/27 11:31:36;;;;;;;3.45;1.30;;;23.40;99.90;;;;;;5135617;27;20640;-45
2022/07/27 11:34:03;;;;;;;4.00;1.60;;;23.40;99.90;;;;;;5134675;27;20201;-45
2022/07/27 11:36:43;;;;;;;4.00;1.33;;;23.40;99.90;;;;;;5134913;27;20243;-45
2022/07/27 11:39:14;;;;;;;5.18;1.30;;;23.60;99.90;;;;;;5134878;27;20167;-44
2022/07/27 11:41:41;;;;;;;1.55;1.20;;;23.60;99.90;;;;;;5134574;27;20565;-47
2022/07/27 11:44:08;;;;;;;2.00;1.23;;;23.90;99.90;;;;;;5135104;27;20168;-46
2022/07/27 11:46:41;;;;;;;3.63;1.30;;;23.80;99.90;;;;;;5134898;27;20259;-45
2022/07/27 11:49:10;;;;;;;7.32;1.20;;;24.00;95.20;;;;;;5135449;27;20232;-45
2022/07/27 11:51:47;;;;;;;2.28;1.33;;;24.10;93.20;;;;;;5135497;27;20203;-47
2022/07/27 11:54:24;;;;;;;2.45;0.98;;;24.20;91.70;;;;;;5134790;27;20163;-46
2022/07/27 11:56:58;;;;;;;1.30;1.17;;;24.40;93.00;;;;;;5134871;27;20203;-47
2022/07/27 11:59:29;;;;;;;2.47;1.20;;;24.60;91.60;;;;;;5134717;27;20164;-46
2022/07/27 12:02:00;;;;;;;2.08;1.40;;;24.90;94.40;;;;;;5134926;27;20186;-45
2022/07/27 12:04:29;;;;;;;2.20;1.48;;;25.20;92.70;;;;;;5134094;27;20484;-46
2022/07/27 12:07:27;;;;;;;4.28;1.60;;;25.30;91.80;;;;;;5134636;27;20167;-46
2022/07/27 12:09:57;;;;;;;4.60;2.03;;;25.50;92.30;;;;;;5133295;27;20184;-45
2022/07/27 12:12:28;;;;;;;4.13;1.50;;;24.50;94.40;;;;;;5134571;27;20179;-46
2022/07/27 12:15:00;;;;;;;4.07;1.20;;;24.30;93.80;;;;;;5134361;27;20194;-45
2022/07/27 12:17:27;;;;;;;3.35;1.25;;;23.90;92.60;;;;;;5133979;27;20163;-47
2022/07/27 12:20:11;;;;;;;1.83;1.00;;;23.80;92.70;;;;;;5134541;27;20216;-51
2022/07/27 12:22:37;;;;;;;3.47;1.27;;;23.60;92.30;;;;;;5134661;27;20164;-51
2022/07/27 12:25:10;;;;;;;2.28;1.02;;;23.40;91.80;;;;;;5134284;27;20843;-50
2022/07/27 12:27:37;;;;;;;2.35;1.08;;;23.30;92.10;;;;;;5134772;27;20167;-50
2022/07/27 12:30:11;;;;;;;1.77;1.00;;;23.50;92.50;;;;;;5134399;27;20160;-52
2022/07/27 12:32:42;;;;;;;2.22;0.93;;;23.60;91.70;;;;;;5134925;27;20292;-52
2022/07/27 12:35:16;;;;;;;2.25;1.15;;;23.70;91.70;;;;;;5134740;27;20722;-52
2022/07/27 12:37:42;;;;;;;3.22;1.20;;;23.80;91.60;;;;;;5134781;27;20187;-51
2022/07/27 12:40:17;;;;;;;3.25;1.17;;;23.90;88.40;;;;;;5134473;27;20191;-52
2022/07/27 12:42:44;;;;;;;4.00;1.23;;;24.30;90.10;;;;;;5133973;27;20167;-52
2022/07/27 12:45:18;;;;;;;3.17;1.63;;;24.50;91.00;;;;;;5134576;27;20171;-50
2022/07/27 12:47:44;;;;;;;1.98;1.15;;;24.50;89.50;;;;;;5134120;27;20167;-52
2022/07/27 12:50:14;;;;;;;3.80;1.88;;;24.30;90.70;;;;;;5133998;27;20509;-49